Time;durP1;ratioP1;P1;durP2;ratioP2;P2;SDS_P1;SDS_P2;PMS_P1;PMS_P2;Temp;Humidity;BMP_temperature;BMP_pressure;BME280_temperature;BME280_humidity;BME280_pressure;Samples;Min_cycle;Max_cycle;Signal;HPM_P1;HPM_P2
2022/07/18 00:00:32;;;;;;;6.95;4.50;;;19.30;99.90;;;;;;5048281;28;20397;-70
2022/07/18 00:02:58;;;;;;;5.93;4.15;;;19.30;99.90;;;;;;5068324;28;20531;-71
2022/07/18 00:05:23;;;;;;;7.68;4.43;;;19.30;99.90;;;;;;5066822;28;20059;-74
2022/07/18 00:07:49;;;;;;;8.93;4.43;;;19.30;99.90;;;;;;5048719;28;20407;-73
2022/07/18 00:10:15;;;;;;;7.57;4.63;;;19.40;99.90;;;;;;5066271;28;20409;-71
2022/07/18 00:12:41;;;;;;;7.78;4.65;;;19.20;99.90;;;;;;5048495;28;20421;-71
2022/07/18 00:15:07;;;;;;;8.77;5.00;;;19.10;99.90;;;;;;5048359;28;20098;-71
2022/07/18 00:17:33;;;;;;;7.13;4.32;;;19.10;99.90;;;;;;5066915;28;20050;-72
2022/07/18 00:19:59;;;;;;;8.10;4.28;;;19.10;99.90;;;;;;5068092;28;20041;-72
2022/07/18 00:22:24;;;;;;;6.32;4.20;;;19.10;99.90;;;;;;5034848;28;20353;-72
2022/07/18 00:24:50;;;;;;;7.05;4.30;;;19.10;99.90;;;;;;5069052;28;20124;-72
2022/07/18 00:27:16;;;;;;;8.00;4.47;;;19.10;99.90;;;;;;5066621;28;20040;-71
2022/07/18 00:29:42;;;;;;;7.53;4.60;;;19.10;99.90;;;;;;5065184;28;20113;-72
2022/07/18 00:32:08;;;;;;;8.93;4.32;;;19.20;99.90;;;;;;5066206;28;20120;-71
2022/07/18 00:34:35;;;;;;;8.65;4.53;;;19.10;99.90;;;;;;5067351;28;20048;-71
2022/07/18 00:37:01;;;;;;;9.25;4.68;;;19.20;99.90;;;;;;5066650;28;20048;-72
2022/07/18 00:39:27;;;;;;;9.50;4.70;;;19.10;99.90;;;;;;5048573;28;20307;-72
2022/07/18 00:41:52;;;;;;;8.35;4.60;;;19.10;99.90;;;;;;5069747;28;20116;-72
2022/07/18 00:44:21;;;;;;;8.02;4.28;;;19.00;99.90;;;;;;5069904;28;20417;-72
2022/07/18 00:46:49;;;;;;;8.20;4.75;;;19.00;99.90;;;;;;5052791;28;20052;-72
2022/07/18 00:49:15;;;;;;;7.07;4.40;;;19.00;99.90;;;;;;5069198;28;20060;-72
2022/07/18 00:51:41;;;;;;;9.35;4.50;;;19.30;99.90;;;;;;5070845;28;20476;-72
2022/07/18 00:54:07;;;;;;;8.88;4.75;;;18.90;99.90;;;;;;5070262;28;20040;-72
2022/07/18 00:56:32;;;;;;;7.32;4.70;;;18.80;99.90;;;;;;5070052;28;20489;-72
2022/07/18 00:58:58;;;;;;;7.00;4.30;;;18.80;99.90;;;;;;5070343;28;20043;-72
2022/07/18 01:01:42;;;;;;;7.10;4.78;;;18.80;99.90;;;;;;5070922;28;20044;-72
2022/07/18 01:04:09;;;;;;;8.45;4.60;;;18.70;99.90;;;;;;5052389;28;20053;-72
2022/07/18 01:06:34;;;;;;;6.53;4.22;;;18.70;99.90;;;;;;5070239;28;20190;-72
2022/07/18 01:09:00;;;;;;;9.25;4.80;;;18.80;99.90;;;;;;5069882;28;20036;-72
2022/07/18 01:11:27;;;;;;;8.68;4.70;;;18.70;99.90;;;;;;5069590;28;20498;-72
2022/07/18 01:13:54;;;;;;;9.73;4.72;;;18.70;99.90;;;;;;5070374;28;20131;-72
2022/07/18 01:16:20;;;;;;;9.27;4.78;;;18.70;99.90;;;;;;5071873;28;20071;-72
2022/07/18 01:18:50;;;;;;;8.02;4.30;;;19.00;99.90;;;;;;5069745;28;20081;-72
2022/07/18 01:21:16;;;;;;;11.57;4.55;;;18.80;99.90;;;;;;5069704;28;20392;-72
2022/07/18 01:23:43;;;;;;;8.43;4.53;;;18.80;99.90;;;;;;5069464;28;20067;-72
2022/07/18 01:26:10;;;;;;;6.35;4.18;;;18.70;99.90;;;;;;5070092;28;20045;-72
2022/07/18 01:28:36;;;;;;;9.18;4.63;;;18.70;99.90;;;;;;5053984;28;20048;-72
2022/07/18 01:31:02;;;;;;;7.68;4.50;;;18.70;99.90;;;;;;5069066;28;20082;-71
2022/07/18 01:33:30;;;;;;;7.38;4.70;;;18.60;99.90;;;;;;5052310;28;20542;-71
2022/07/18 01:35:59;;;;;;;7.35;4.70;;;18.60;99.90;;;;;;5052705;28;20036;-72
2022/07/18 01:38:24;;;;;;;8.80;4.55;;;18.60;99.90;;;;;;5051102;28;20552;-72
2022/07/18 01:40:50;;;;;;;8.93;4.75;;;18.90;99.90;;;;;;5067989;28;20127;-72
2022/07/18 01:43:16;;;;;;;7.22;4.68;;;18.50;99.90;;;;;;5050875;28;20028;-72
2022/07/18 01:45:41;;;;;;;8.63;4.78;;;18.50;99.90;;;;;;5068658;28;20045;-72
2022/07/18 01:48:07;;;;;;;10.02;5.03;;;18.50;99.90;;;;;;5070153;28;20044;-72
2022/07/18 01:50:32;;;;;;;10.52;5.18;;;18.50;99.90;;;;;;5051619;28;20119;-72
2022/07/18 01:52:58;;;;;;;7.90;4.93;;;18.50;99.90;;;;;;5070393;28;20044;-72
2022/07/18 01:55:23;;;;;;;10.63;5.00;;;18.90;99.90;;;;;;5053414;28;20150;-72
2022/07/18 01:57:49;;;;;;;9.15;5.03;;;18.40;99.90;;;;;;5069789;28;20115;-72
2022/07/18 02:00:15;;;;;;;10.65;5.60;;;19.00;99.90;;;;;;5068447;28;20544;-72
2022/07/18 02:02:41;;;;;;;10.43;5.35;;;18.40;99.90;;;;;;5069527;28;20397;-72
2022/07/18 02:05:07;;;;;;;9.15;5.18;;;18.40;99.90;;;;;;5069679;28;20114;-72
2022/07/18 02:07:38;;;;;;;8.95;5.03;;;18.40;99.90;;;;;;5050868;28;20052;-72
2022/07/18 02:10:07;;;;;;;9.10;4.85;;;18.40;99.90;;;;;;5047991;28;20049;-72
2022/07/18 02:12:33;;;;;;;7.80;5.20;;;18.30;99.90;;;;;;5065305;28;20059;-72
2022/07/18 02:14:59;;;;;;;7.30;5.10;;;18.30;99.90;;;;;;5068183;28;20044;-72
2022/07/18 02:17:24;;;;;;;9.35;4.93;;;18.30;99.90;;;;;;5069178;28;20036;-72
2022/07/18 02:19:50;;;;;;;9.30;5.32;;;18.40;99.90;;;;;;5071997;28;20511;-71
2022/07/18 02:22:16;;;;;;;10.27;5.35;;;18.30;99.90;;;;;;5052922;28;20045;-72
2022/07/18 02:24:41;;;;;;;7.75;5.10;;;18.40;99.90;;;;;;5050346;28;20040;-72
2022/07/18 02:27:07;;;;;;;9.05;5.07;;;18.20;99.90;;;;;;5068628;28;20048;-72
2022/07/18 02:29:33;;;;;;;9.05;5.03;;;18.20;99.90;;;;;;5049752;28;20080;-72
2022/07/18 02:31:59;;;;;;;10.10;5.47;;;18.20;99.90;;;;;;5069632;28;20072;-72
2022/07/18 02:34:24;;;;;;;7.13;4.90;;;18.20;99.90;;;;;;5068653;28;20048;-71
2022/07/18 02:36:50;;;;;;;8.82;5.20;;;18.00;99.90;;;;;;5069012;28;20051;-71
2022/07/18 02:39:17;;;;;;;9.35;5.25;;;18.00;99.90;;;;;;5068665;28;20072;-72
2022/07/18 02:41:43;;;;;;;10.85;5.32;;;18.00;99.90;;;;;;5067348;28;20037;-72
2022/07/18 02:44:09;;;;;;;9.25;5.50;;;17.90;99.90;;;;;;5068573;28;20088;-71
2022/07/18 02:46:34;;;;;;;7.57;5.25;;;17.90;99.90;;;;;;5068598;28;20067;-72
2022/07/18 02:49:00;;;;;;;9.77;5.53;;;17.90;99.90;;;;;;5049431;28;20114;-72
2022/07/18 02:51:26;;;;;;;9.75;5.57;;;18.30;99.90;;;;;;5068838;28;20056;-72
2022/07/18 02:53:52;;;;;;;9.88;5.57;;;18.00;99.90;;;;;;5068188;28;20040;-72
2022/07/18 02:56:18;;;;;;;8.27;5.20;;;17.90;99.90;;;;;;5068029;28;20447;-72
2022/07/18 02:58:43;;;;;;;9.43;5.50;;;18.20;99.90;;;;;;5067618;28;20040;-71
2022/07/18 03:01:09;;;;;;;10.52;5.63;;;18.20;99.90;;;;;;5049888;28;20041;-71
2022/07/18 03:03:35;;;;;;;8.13;4.85;;;18.10;99.90;;;;;;5067932;28;20040;-71
2022/07/18 03:06:00;;;;;;;9.25;5.50;;;17.90;99.90;;;;;;5050617;28;20045;-71
2022/07/18 03:08:26;;;;;;;9.73;5.38;;;17.80;99.90;;;;;;5068080;28;20135;-71
2022/07/18 03:10:51;;;;;;;8.80;5.05;;;18.20;99.90;;;;;;5067394;28;20052;-71
2022/07/18 03:13:17;;;;;;;8.18;4.93;;;17.80;99.90;;;;;;5067225;28;20199;-71
2022/07/18 03:15:43;;;;;;;7.45;4.88;;;17.80;99.90;;;;;;5067692;28;20037;-72
2022/07/18 03:18:08;;;;;;;8.48;5.43;;;17.80;99.90;;;;;;5067757;28;20127;-71
2022/07/18 03:20:34;;;;;;;10.23;5.70;;;17.80;99.90;;;;;;5049728;28;20044;-71
2022/07/18 03:23:05;;;;;;;10.45;5.35;;;17.80;99.90;;;;;;5068339;28;20453;-71
2022/07/18 03:25:31;;;;;;;9.20;5.50;;;17.80;99.90;;;;;;5067026;28;20091;-72
2022/07/18 03:27:56;;;;;;;9.15;5.30;;;18.00;99.90;;;;;;5067609;28;20080;-71
2022/07/18 03:30:22;;;;;;;7.70;5.13;;;18.00;99.90;;;;;;5067099;28;20481;-71
2022/07/18 03:32:48;;;;;;;9.85;5.35;;;17.80;99.90;;;;;;5050248;28;20062;-71
2022/07/18 03:35:14;;;;;;;10.05;5.22;;;17.70;99.90;;;;;;5068144;28;20087;-71
2022/07/18 03:37:39;;;;;;;10.50;5.30;;;17.80;99.90;;;;;;5067256;28;20405;-71
2022/07/18 03:40:05;;;;;;;8.80;5.18;;;18.30;99.90;;;;;;5064392;28;20157;-71
2022/07/18 03:42:31;;;;;;;8.40;5.30;;;17.70;99.90;;;;;;5066992;28;20389;-71
2022/07/18 03:44:57;;;;;;;6.90;4.72;;;17.60;99.90;;;;;;5066221;28;20044;-71
2022/07/18 03:47:23;;;;;;;7.07;5.00;;;17.50;99.90;;;;;;5068473;28;20055;-71
2022/07/18 03:49:48;;;;;;;7.93;5.30;;;17.40;99.90;;;;;;5069012;28;20493;-71
2022/07/18 03:52:14;;;;;;;9.15;4.93;;;17.50;99.90;;;;;;5067186;28;20056;-71
2022/07/18 03:54:39;;;;;;;8.38;4.72;;;17.60;99.90;;;;;;5066969;28;20393;-71
2022/07/18 03:57:05;;;;;;;9.27;5.30;;;17.60;99.90;;;;;;5067278;28;20052;-71
2022/07/18 03:59:31;;;;;;;9.15;5.15;;;17.50;99.90;;;;;;5066509;28;20098;-71
2022/07/18 04:01:56;;;;;;;8.88;5.22;;;17.50;99.90;;;;;;5067183;28;20094;-71
2022/07/18 04:04:22;;;;;;;8.75;5.07;;;17.60;99.90;;;;;;5067811;28;20064;-71
2022/07/18 04:06:48;;;;;;;11.27;5.65;;;17.60;99.90;;;;;;5066844;28;20066;-72
2022/07/18 04:09:13;;;;;;;8.82;5.30;;;17.60;99.90;;;;;;5067562;28;20079;-72
2022/07/18 04:11:39;;;;;;;9.65;5.07;;;17.50;99.90;;;;;;5049559;28;20052;-71
2022/07/18 04:14:04;;;;;;;8.93;5.05;;;17.50;99.90;;;;;;5065796;28;20042;-71
2022/07/18 04:16:30;;;;;;;10.85;5.35;;;17.60;99.90;;;;;;5070504;28;20108;-71
2022/07/18 04:18:56;;;;;;;9.32;4.82;;;17.60;99.90;;;;;;5039777;28;20114;-71
2022/07/18 04:21:22;;;;;;;8.50;5.25;;;17.70;99.90;;;;;;5036889;28;20128;-71
2022/07/18 04:23:47;;;;;;;9.13;4.85;;;18.10;99.90;;;;;;5053853;28;20121;-71
2022/07/18 04:26:13;;;;;;;8.93;5.28;;;17.60;99.90;;;;;;5071298;28;20040;-71
2022/07/18 04:28:39;;;;;;;8.93;5.40;;;17.60;99.90;;;;;;5069769;28;20056;-71
2022/07/18 04:31:04;;;;;;;11.80;5.50;;;17.90;99.90;;;;;;5053000;28;20114;-72
2022/07/18 04:33:30;;;;;;;8.75;4.95;;;17.70;99.90;;;;;;5051831;28;20041;-71
2022/07/18 04:35:56;;;;;;;7.70;4.78;;;17.70;99.90;;;;;;5067784;28;20126;-71
2022/07/18 04:38:21;;;;;;;7.75;4.90;;;18.20;99.90;;;;;;5070724;28;20045;-71
2022/07/18 04:40:47;;;;;;;9.57;5.30;;;17.90;99.90;;;;;;5052447;28;20055;-71
2022/07/18 04:43:12;;;;;;;12.98;5.00;;;17.60;99.90;;;;;;5054374;28;20101;-70
2022/07/18 04:45:38;;;;;;;9.32;5.25;;;17.60;99.90;;;;;;5070104;28;20067;-72
2022/07/18 04:48:05;;;;;;;8.95;4.90;;;17.60;99.90;;;;;;5070727;28;20048;-71
2022/07/18 04:50:30;;;;;;;9.25;5.03;;;17.60;99.90;;;;;;5052210;28;20032;-72
2022/07/18 04:52:57;;;;;;;9.20;5.07;;;17.90;99.90;;;;;;5071467;28;20499;-72
2022/07/18 04:55:24;;;;;;;7.93;4.53;;;17.70;99.90;;;;;;5069891;28;20111;-72
2022/07/18 04:57:51;;;;;;;10.55;4.75;;;17.80;99.90;;;;;;5070630;28;20404;-72
2022/07/18 05:00:19;;;;;;;24.27;4.60;;;17.80;99.90;;;;;;5069003;28;20052;-71
2022/07/18 05:02:47;;;;;;;11.32;4.70;;;18.00;99.90;;;;;;5058224;28;20044;-71
2022/07/18 05:05:15;;;;;;;11.57;4.38;;;18.00;99.90;;;;;;5062785;28;20044;-70
2022/07/18 05:07:42;;;;;;;11.70;4.85;;;18.20;99.90;;;;;;5051690;28;20048;-71
2022/07/18 05:10:09;;;;;;;11.02;4.78;;;18.00;99.90;;;;;;5051250;28;20099;-70
2022/07/18 05:12:40;;;;;;;7.78;4.30;;;18.10;99.90;;;;;;5069832;28;20048;-72
2022/07/18 05:15:08;;;;;;;8.55;4.07;;;18.20;99.90;;;;;;5070043;28;20044;-72
2022/07/18 05:17:34;;;;;;;12.40;4.15;;;18.20;99.90;;;;;;5051509;28;20044;-72
2022/07/18 05:20:00;;;;;;;13.05;4.38;;;18.70;99.90;;;;;;5070366;28;20102;-72
2022/07/18 05:22:25;;;;;;;9.60;3.85;;;18.40;99.90;;;;;;5052716;28;20102;-72
2022/07/18 05:24:51;;;;;;;7.00;4.13;;;18.80;99.90;;;;;;5039772;28;20052;-72
2022/07/18 05:27:17;;;;;;;11.38;4.20;;;18.70;99.90;;;;;;5032152;28;20053;-70
2022/07/18 05:29:43;;;;;;;9.00;3.80;;;18.30;99.90;;;;;;5048998;28;20528;-72
2022/07/18 05:32:08;;;;;;;8.98;3.78;;;18.30;99.90;;;;;;5068122;28;20378;-72
2022/07/18 05:34:34;;;;;;;9.43;3.80;;;18.20;99.90;;;;;;5048731;28;20045;-72
2022/07/18 05:37:00;;;;;;;9.20;3.67;;;18.30;99.90;;;;;;5050123;28;20080;-72
2022/07/18 05:39:26;;;;;;;9.75;3.83;;;18.60;99.90;;;;;;5048840;28;20562;-72
2022/07/18 05:41:52;;;;;;;8.75;3.78;;;18.40;99.90;;;;;;5049776;28;20123;-72
2022/07/18 05:44:21;;;;;;;9.18;3.97;;;18.40;99.90;;;;;;5043388;28;20075;-72
2022/07/18 05:46:47;;;;;;;6.13;3.13;;;18.50;99.90;;;;;;5069869;28;20053;-72
2022/07/18 05:49:13;;;;;;;12.82;3.83;;;18.50;99.90;;;;;;5072087;28;20051;-72
2022/07/18 05:51:39;;;;;;;15.25;4.00;;;18.60;99.90;;;;;;5052627;28;20048;-72
2022/07/18 05:54:05;;;;;;;14.93;3.95;;;18.70;99.90;;;;;;5067999;28;20105;-72
2022/07/18 05:56:32;;;;;;;8.50;3.60;;;18.60;99.90;;;;;;5070099;28;20047;-74
2022/07/18 05:58:57;;;;;;;9.45;3.58;;;18.70;99.90;;;;;;5049953;28;20181;-74
2022/07/18 06:01:23;;;;;;;13.30;3.30;;;18.80;99.90;;;;;;5069512;28;20127;-74
2022/07/18 06:03:48;;;;;;;17.85;3.65;;;18.80;99.90;;;;;;5069307;28;20126;-73
2022/07/18 06:06:15;;;;;;;14.00;3.88;;;18.80;99.90;;;;;;5068269;28;20059;-74
2022/07/18 06:08:41;;;;;;;13.52;3.72;;;18.90;99.90;;;;;;5051197;28;20139;-74
2022/07/18 06:11:08;;;;;;;13.95;3.53;;;19.00;99.90;;;;;;5064676;28;20040;-75
2022/07/18 06:13:39;;;;;;;15.48;3.92;;;19.10;99.90;;;;;;5067325;28;20095;-75
2022/07/18 06:16:06;;;;;;;11.23;3.63;;;19.20;99.90;;;;;;5069081;28;20032;-75
2022/07/18 06:18:34;;;;;;;8.70;3.17;;;19.20;99.90;;;;;;5069312;28;20040;-74
2022/07/18 06:21:01;;;;;;;9.40;3.50;;;19.30;99.90;;;;;;5067718;28;20040;-81
2022/07/18 06:23:27;;;;;;;8.90;2.95;;;19.40;99.90;;;;;;5049894;28;20053;-82
2022/07/18 06:25:52;;;;;;;8.75;3.22;;;19.50;99.90;;;;;;5032421;28;20433;-82
2022/07/18 06:28:18;;;;;;;9.05;2.97;;;19.50;99.90;;;;;;5030254;28;20052;-82
2022/07/18 06:30:44;;;;;;;4.82;2.53;;;19.60;99.90;;;;;;5050214;28;20143;-82
2022/07/18 06:33:10;;;;;;;5.82;2.80;;;19.70;99.90;;;;;;5016440;28;20041;-83
2022/07/18 06:35:36;;;;;;;6.85;2.78;;;19.90;99.90;;;;;;5049805;28;20051;-83
2022/07/18 06:38:01;;;;;;;6.28;2.50;;;20.10;99.90;;;;;;5069654;28;20481;-82
2022/07/18 06:40:27;;;;;;;8.05;2.85;;;20.20;99.90;;;;;;5068200;28;20047;-82
2022/07/18 06:42:53;;;;;;;5.88;2.60;;;20.20;99.90;;;;;;5070338;28;20056;-82
2022/07/18 06:45:18;;;;;;;7.75;2.63;;;20.30;99.90;;;;;;5050631;28;20090;-82
2022/07/18 06:47:45;;;;;;;8.40;2.53;;;20.20;99.90;;;;;;5067977;28;20108;-82
2022/07/18 06:50:15;;;;;;;5.97;2.50;;;20.30;99.90;;;;;;5069646;28;20477;-82
2022/07/18 06:52:43;;;;;;;6.47;2.97;;;20.20;99.90;;;;;;5068892;28;20039;-82
2022/07/18 06:55:09;;;;;;;5.22;2.55;;;20.30;99.90;;;;;;5062117;28;20045;-82
2022/07/18 06:57:35;;;;;;;9.15;2.65;;;20.40;99.90;;;;;;5069091;28;20052;-82
2022/07/18 07:00:01;;;;;;;7.22;2.67;;;20.30;99.90;;;;;;5050809;28;20409;-82
2022/07/18 07:02:27;;;;;;;7.30;2.90;;;20.40;99.90;;;;;;5068925;28;20056;-83
2022/07/18 07:04:52;;;;;;;7.78;2.80;;;20.50;99.90;;;;;;5069497;28;20045;-82
2022/07/18 07:07:18;;;;;;;7.22;2.47;;;20.60;99.90;;;;;;5070006;28;20051;-82
2022/07/18 07:09:44;;;;;;;4.88;2.30;;;20.50;99.90;;;;;;5050291;28;20052;-83
2022/07/18 07:12:10;;;;;;;7.68;2.63;;;20.60;99.90;;;;;;5052828;28;20109;-83
2022/07/18 07:14:36;;;;;;;6.65;2.85;;;20.60;99.90;;;;;;5050233;28;20497;-84
2022/07/18 07:17:03;;;;;;;7.40;2.50;;;20.80;99.90;;;;;;5033991;28;20389;-83
2022/07/18 07:19:29;;;;;;;6.13;2.45;;;20.80;99.90;;;;;;5069128;28;20139;-84
2022/07/18 07:21:54;;;;;;;5.22;2.35;;;20.80;99.90;;;;;;5069775;28;20040;-84
2022/07/18 07:24:20;;;;;;;7.10;2.75;;;20.80;99.90;;;;;;5051481;28;20155;-83
2022/07/18 07:26:46;;;;;;;6.82;2.78;;;21.00;99.90;;;;;;5068505;28;20401;-83
2022/07/18 07:29:12;;;;;;;5.95;2.45;;;21.50;99.90;;;;;;5050484;28;20047;-83
2022/07/18 07:31:39;;;;;;;6.28;2.53;;;21.10;99.90;;;;;;5067454;28;20158;-82
2022/07/18 07:34:04;;;;;;;7.47;2.60;;;21.20;99.90;;;;;;5067688;28;20086;-82
2022/07/18 07:36:30;;;;;;;6.70;2.60;;;21.30;99.90;;;;;;5069021;28;20048;-83
2022/07/18 07:38:56;;;;;;;5.55;2.40;;;21.40;99.90;;;;;;5050854;28;20127;-83
2022/07/18 07:41:22;;;;;;;4.18;2.30;;;21.90;99.90;;;;;;5071308;28;20515;-83
2022/07/18 07:43:48;;;;;;;5.38;2.40;;;21.50;99.90;;;;;;5068990;28;20036;-82
2022/07/18 07:46:13;;;;;;;5.97;2.33;;;22.20;99.90;;;;;;5068786;28;20100;-83
2022/07/18 07:48:39;;;;;;;4.70;2.30;;;21.60;99.90;;;;;;5069339;28;20041;-81
2022/07/18 07:51:05;;;;;;;8.68;2.45;;;21.70;99.90;;;;;;5069539;28;20359;-83
2022/07/18 07:53:31;;;;;;;4.05;2.17;;;21.80;99.90;;;;;;5069700;28;20048;-84
2022/07/18 07:55:57;;;;;;;5.03;2.20;;;21.90;99.90;;;;;;5068886;28;20127;-84
2022/07/18 07:58:22;;;;;;;6.18;2.47;;;21.90;99.90;;;;;;5049145;28;20045;-81
2022/07/18 08:00:48;;;;;;;7.57;2.40;;;22.00;99.90;;;;;;5068130;28;20040;-81
2022/07/18 08:03:14;;;;;;;7.82;2.20;;;22.10;99.90;;;;;;5068195;28;20075;-81
2022/07/18 08:05:49;;;;;;;5.18;2.40;;;22.20;99.90;;;;;;5049583;28;20056;-80
2022/07/18 08:08:15;;;;;;;4.07;2.23;;;22.40;99.90;;;;;;5067840;28;20040;-81
2022/07/18 08:10:42;;;;;;;5.90;2.40;;;22.60;99.90;;;;;;5067011;28;20640;-81
2022/07/18 08:13:07;;;;;;;6.38;2.25;;;22.80;99.90;;;;;;5066490;28;20485;-80
2022/07/18 08:15:33;;;;;;;8.73;2.50;;;22.90;99.90;;;;;;5067752;28;20059;-78
2022/07/18 08:17:59;;;;;;;6.15;2.13;;;23.00;99.00;;;;;;5068015;28;20036;-80
2022/07/18 08:20:25;;;;;;;4.28;2.30;;;23.10;99.30;;;;;;5049023;28;20056;-79
2022/07/18 08:22:54;;;;;;;5.57;2.38;;;23.10;98.90;;;;;;5068110;28;20093;-78
2022/07/18 08:25:21;;;;;;;6.68;2.35;;;23.20;98.90;;;;;;5067010;28;20106;-79
2022/07/18 08:27:46;;;;;;;8.45;2.55;;;23.30;98.90;;;;;;5067443;28;20052;-79
2022/07/18 08:30:12;;;;;;;5.90;2.20;;;23.50;98.70;;;;;;5069444;28;20385;-77
2022/07/18 08:32:38;;;;;;;5.43;2.22;;;23.60;98.70;;;;;;5052082;28;20052;-77
2022/07/18 08:35:04;;;;;;;5.68;1.98;;;23.70;98.70;;;;;;5035603;28;20386;-78
2022/07/18 08:37:29;;;;;;;6.07;2.65;;;23.80;98.60;;;;;;5051339;28;20445;-80
2022/07/18 08:39:55;;;;;;;5.78;2.22;;;23.90;98.40;;;;;;5067456;28;20036;-80
2022/07/18 08:42:26;;;;;;;5.43;2.10;;;24.00;98.20;;;;;;5069760;28;20098;-80
2022/07/18 08:44:56;;;;;;;5.43;2.33;;;24.20;97.60;;;;;;5087412;28;20123;-80
2022/07/18 08:47:23;;;;;;;5.22;2.03;;;24.20;97.70;;;;;;5087007;28;20036;-81
2022/07/18 08:49:49;;;;;;;4.70;2.22;;;24.40;97.70;;;;;;5089943;28;20073;-80
2022/07/18 08:52:16;;;;;;;8.00;2.28;;;24.50;97.30;;;;;;5086757;28;20130;-81
2022/07/18 08:54:42;;;;;;;5.50;2.00;;;24.60;96.70;;;;;;5086541;28;20067;-80
2022/07/18 08:57:09;;;;;;;5.85;2.15;;;24.70;96.90;;;;;;5071689;28;20126;-80
2022/07/18 08:59:35;;;;;;;6.50;2.10;;;24.70;96.50;;;;;;5090895;28;20046;-80
2022/07/18 09:02:01;;;;;;;5.20;1.80;;;24.70;96.40;;;;;;5089378;28;20036;-81
2022/07/18 09:04:38;;;;;;;4.13;2.20;;;24.70;96.40;;;;;;5083985;28;20401;-79
2022/07/18 09:07:05;;;;;;;4.93;2.10;;;24.70;96.20;;;;;;5055834;28;20151;-79
2022/07/18 09:09:31;;;;;;;4.78;1.80;;;24.70;96.00;;;;;;5052067;28;20056;-80
2022/07/18 09:12:00;;;;;;;4.22;1.98;;;24.80;96.10;;;;;;5048526;28;20071;-80
2022/07/18 09:14:31;;;;;;;5.75;2.00;;;24.90;95.90;;;;;;5050680;28;20061;-80
2022/07/18 09:17:05;;;;;;;4.30;2.00;;;25.00;95.70;;;;;;5049238;28;20044;-80
2022/07/18 09:19:31;;;;;;;8.38;2.20;;;25.10;95.60;;;;;;5050051;28;20040;-71
2022/07/18 09:22:20;;;;;;;6.10;1.90;;;25.10;95.70;;;;;;5048441;28;20092;-74
2022/07/18 09:25:20;;;;;;;5.22;2.08;;;25.20;95.80;;;;;;5047888;28;20077;-73
2022/07/18 09:27:48;;;;;;;5.40;2.00;;;25.30;95.60;;;;;;5045756;28;20053;-73
2022/07/18 09:30:24;;;;;;;4.22;2.00;;;25.40;95.60;;;;;;5047654;28;20402;-73
2022/07/18 09:33:02;;;;;;;7.15;2.10;;;25.60;95.50;;;;;;5048041;28;20155;-73
2022/07/18 09:35:29;;;;;;;5.72;2.20;;;25.70;95.30;;;;;;5049779;28;20045;-73
2022/07/18 09:38:15;;;;;;;4.97;2.00;;;25.90;95.40;;;;;;5048072;28;20040;-73
2022/07/18 09:40:46;;;;;;;4.82;1.90;;;26.00;94.50;;;;;;5049207;28;20094;-73
2022/07/18 09:43:15;;;;;;;5.40;2.10;;;26.10;94.80;;;;;;5047621;28;20055;-73
2022/07/18 09:45:44;;;;;;;8.18;2.15;;;26.30;94.70;;;;;;5048791;28;20072;-73
2022/07/18 09:48:12;;;;;;;5.75;2.13;;;26.40;94.50;;;;;;5049697;28;20139;-73
2022/07/18 09:51:00;;;;;;;5.20;2.10;;;26.60;94.10;;;;;;5049043;28;20037;-73
2022/07/18 09:53:47;;;;;;;5.88;1.90;;;26.80;93.50;;;;;;5047472;28;20045;-73
2022/07/18 09:56:23;;;;;;;6.97;1.80;;;27.00;93.70;;;;;;5067861;28;20436;-73
2022/07/18 09:58:55;;;;;;;4.50;1.88;;;27.20;93.20;;;;;;5048754;28;20044;-73
2022/07/18 10:01:21;;;;;;;4.88;1.98;;;27.70;93.00;;;;;;5049156;28;20048;-73
2022/07/18 10:03:48;;;;;;;5.07;2.10;;;28.20;92.80;;;;;;5048215;28;20041;-73
2022/07/18 10:06:16;;;;;;;4.70;2.03;;;28.60;92.30;;;;;;5048678;28;20525;-73
2022/07/18 10:08:42;;;;;;;4.60;1.85;;;28.90;91.50;;;;;;5048720;28;20948;-73
2022/07/18 10:11:08;;;;;;;5.50;2.45;;;29.30;91.50;;;;;;5051574;28;20055;-72
2022/07/18 10:13:36;;;;;;;6.55;2.20;;;29.80;90.90;;;;;;5067762;28;20051;-73
2022/07/18 10:16:03;;;;;;;5.40;1.83;;;30.50;89.00;;;;;;5069098;28;20052;-71
2022/07/18 10:18:32;;;;;;;6.65;2.05;;;31.40;87.90;;;;;;5068500;28;20078;-71
2022/07/18 10:21:10;;;;;;;7.85;2.22;;;31.90;85.80;;;;;;5052326;28;20045;-71
2022/07/18 10:23:39;;;;;;;7.43;1.98;;;32.10;84.40;;;;;;5070609;28;20044;-72
2022/07/18 10:26:07;;;;;;;7.47;1.90;;;32.30;84.10;;;;;;5068981;28;20119;-72
2022/07/18 10:28:33;;;;;;;4.95;2.38;;;33.30;83.40;;;;;;5068270;28;20189;-73
2022/07/18 10:31:16;;;;;;;8.48;2.35;;;33.80;82.00;;;;;;5067499;28;20045;-72
2022/07/18 10:33:48;;;;;;;5.32;2.00;;;33.60;79.20;;;;;;5050053;28;20056;-72
2022/07/18 10:36:15;;;;;;;7.22;2.30;;;34.30;78.80;;;;;;5068546;28;20044;-73
2022/07/18 10:39:20;;;;;;;4.78;2.20;;;34.90;77.90;;;;;;5067415;28;20079;-73
2022/07/18 10:41:46;;;;;;;6.70;2.13;;;35.30;76.50;;;;;;4985929;28;20066;-73
2022/07/18 10:44:30;;;;;;;6.25;2.20;;;36.20;76.10;;;;;;5035936;28;20395;-73
2022/07/18 10:49:52;;;;;;;4.93;2.30;;;37.00;71.70;;;;;;5068392;28;20131;-73
2022/07/18 10:52:27;;;;;;;4.57;2.30;;;37.60;70.00;;;;;;5067647;28;20051;-73
2022/07/18 10:55:16;;;;;;;7.15;2.85;;;38.90;69.10;;;;;;5068299;28;20040;-73
2022/07/18 10:58:05;;;;;;;6.40;2.65;;;39.10;64.40;;;;;;5049790;28;20144;-73
2022/07/18 11:00:36;;;;;;;7.57;2.60;;;39.10;63.40;;;;;;5039103;28;20063;-73
2022/07/18 11:03:08;;;;;;;3.90;2.70;;;38.70;64.00;;;;;;5068165;28;20049;-73
2022/07/18 11:05:44;;;;;;;5.85;2.80;;;38.30;62.60;;;;;;5067550;28;20401;-74
2022/07/18 11:08:13;;;;;;;5.68;2.50;;;37.30;61.50;;;;;;5034501;28;20174;-73
2022/07/18 11:10:41;;;;;;;5.60;2.60;;;36.80;62.80;;;;;;5067079;28;20102;-74
2022/07/18 11:13:26;;;;;;;5.00;2.60;;;35.90;62.50;;;;;;5067004;28;20049;-73
2022/07/18 11:16:14;;;;;;;6.05;3.03;;;35.30;60.90;;;;;;5068062;28;20081;-73
2022/07/18 11:18:46;;;;;;;7.30;2.65;;;34.90;61.80;;;;;;5049244;28;20048;-73
2022/07/18 11:21:29;;;;;;;8.27;3.13;;;34.00;61.60;;;;;;5032598;28;20154;-73
2022/07/18 11:24:09;;;;;;;6.65;3.10;;;33.70;61.90;;;;;;5067331;28;20052;-73
2022/07/18 11:26:37;;;;;;;7.25;3.00;;;32.60;60.10;;;;;;5067889;28;20432;-73
2022/07/18 11:29:11;;;;;;;5.25;3.00;;;32.60;60.80;;;;;;5057329;28;20044;-72
2022/07/18 11:31:54;;;;;;;5.13;2.88;;;32.40;62.30;;;;;;5070383;28;20047;-73
2022/07/18 11:34:23;;;;;;;5.30;2.80;;;32.80;63.00;;;;;;5089874;28;20127;-73
2022/07/18 11:36:49;;;;;;;4.38;2.88;;;32.90;63.60;;;;;;5088624;28;20039;-72
2022/07/18 11:39:28;;;;;;;6.28;3.20;;;33.50;62.80;;;;;;5069518;28;20090;-72
2022/07/18 11:41:54;;;;;;;6.78;3.00;;;35.10;63.50;;;;;;5087108;28;20127;-72
2022/07/18 11:44:26;;;;;;;6.78;3.20;;;36.20;62.40;;;;;;5086583;28;20532;-73
2022/07/18 11:47:07;;;;;;;7.43;3.10;;;37.40;61.90;;;;;;5039791;28;20115;-73
2022/07/18 11:49:35;;;;;;;4.35;2.95;;;38.90;60.90;;;;;;5028803;28;20412;-72
2022/07/18 11:52:00;;;;;;;7.47;3.17;;;39.20;60.00;;;;;;5046893;28;20045;-73
2022/07/18 11:54:28;;;;;;;5.22;3.15;;;40.10;59.80;;;;;;5047240;28;20059;-73
2022/07/18 11:56:55;;;;;;;6.32;3.17;;;39.60;58.70;;;;;;5036801;28;20040;-73
2022/07/18 11:59:21;;;;;;;7.22;3.13;;;38.90;58.10;;;;;;5049158;28;20135;-73
2022/07/18 12:01:52;;;;;;;7.47;3.22;;;39.90;58.40;;;;;;5067345;28;20090;-74
2022/07/18 12:04:22;;;;;;;5.00;2.95;;;41.40;58.30;;;;;;5048210;28;20080;-74
2022/07/18 12:07:18;;;;;;;4.88;3.28;;;43.00;57.80;;;;;;5071548;28;20134;-74
2022/07/18 12:09:44;;;;;;;5.55;3.15;;;43.40;55.60;;;;;;5065875;28;20116;-74
2022/07/18 12:12:12;;;;;;;4.95;3.10;;;43.30;55.50;;;;;;5029578;28;20053;-74
2022/07/18 12:14:38;;;;;;;7.65;3.30;;;44.10;55.50;;;;;;5044575;28;20087;-73
2022/07/18 12:17:05;;;;;;;4.18;2.83;;;44.90;54.60;;;;;;5045860;28;20032;-72
2022/07/18 12:19:39;;;;;;;5.75;3.28;;;44.70;53.60;;;;;;5046771;28;20124;-74
2022/07/18 12:22:10;;;;;;;6.15;3.05;;;43.90;52.50;;;;;;5045665;28;20037;-74
2022/07/18 12:24:41;;;;;;;5.72;2.90;;;42.10;51.60;;;;;;5044500;28;20053;-73
2022/07/18 12:27:36;;;;;;;4.70;3.00;;;40.50;52.70;;;;;;5027901;28;20049;-73
2022/07/18 12:30:04;;;;;;;;;;;38.90;51.80;;;;;;5043277;28;20083;-72
2022/07/18 12:32:41;;;;;;;5.80;3.30;;;37.40;52.40;;;;;;5045966;28;19983;-74
2022/07/18 12:35:08;;;;;;;7.05;3.33;;;36.60;53.00;;;;;;5026134;28;20060;-72
2022/07/18 12:37:34;;;;;;;5.85;3.47;;;35.80;53.30;;;;;;5048849;28;20084;-73
2022/07/18 12:40:09;;;;;;;4.55;3.15;;;35.30;53.50;;;;;;5049453;28;20442;-72
2022/07/18 12:42:40;;;;;;;5.65;3.47;;;34.60;54.80;;;;;;5050362;28;20457;-73
2022/07/18 12:45:08;;;;;;;6.25;3.30;;;34.40;55.10;;;;;;5041003;28;20056;-74
2022/07/18 12:47:35;;;;;;;6.78;3.30;;;34.00;54.90;;;;;;5050899;28;20048;-73
2022/07/18 12:50:01;;;;;;;4.63;3.20;;;33.60;55.90;;;;;;5049630;28;20071;-74
2022/07/18 12:52:27;;;;;;;5.57;3.20;;;33.30;56.40;;;;;;5043042;28;20095;-73